sensor_id;sensor_type;location;lat;lon;timestamp;P1;durP1;ratioP1;P2;durP2;ratioP2
67429;SDS011;54298;52.076;5.264;2023-11-18T00:01:19;26.2;;;15.4;;
67429;SDS011;54298;52.076;5.264;2023-11-18T00:02:55;26.0;;;15.5;;
67429;SDS011;54298;52.076;5.264;2023-11-18T00:04:31;26.6;;;15.2;;
67429;SDS011;54298;52.076;5.264;2023-11-18T00:07:44;26.3;;;15.4;;
67429;SDS011;54298;52.076;5.264;2023-11-18T00:09:20;23.7;;;15.0;;
67429;SDS011;54298;52.076;5.264;2023-11-18T00:10:56;22.6;;;15.3;;
67429;SDS011;54298;52.076;5.264;2023-11-18T00:14:08;25.2;;;15.5;;
67429;SDS011;54298;52.076;5.264;2023-11-18T00:15:44;27.0;;;15.2;;
67429;SDS011;54298;52.076;5.264;2023-11-18T00:17:20;31.6;;;15.5;;
67429;SDS011;54298;52.076;5.264;2023-11-18T00:20:33;27.8;;;15.6;;
67429;SDS011;54298;52.076;5.264;2023-11-18T00:22:09;29.5;;;15.9;;
67429;SDS011;54298;52.076;5.264;2023-11-18T00:23:45;28.5;;;16.11;;
67429;SDS011;54298;52.076;5.264;2023-11-18T00:25:21;28.7;;;14.9;;
67429;SDS011;54298;52.076;5.264;2023-11-18T00:28:33;24.7;;;15.8;;
67429;SDS011;54298;52.076;5.264;2023-11-18T00:30:09;21.7;;;13.5;;
67429;SDS011;54298;52.076;5.264;2023-11-18T00:31:46;26.3;;;14.5;;
67429;SDS011;54298;52.076;5.264;2023-11-18T00:34:59;28.8;;;14.6;;
67429;SDS011;54298;52.076;5.264;2023-11-18T00:36:35;23.8;;;14.5;;
67429;SDS011;54298;52.076;5.264;2023-11-18T00:38:11;24.8;;;14.7;;
67429;SDS011;54298;52.076;5.264;2023-11-18T00:41:23;25.9;;;14.5;;
67429;SDS011;54298;52.076;5.264;2023-11-18T00:42:59;25.9;;;15.7;;
67429;SDS011;54298;52.076;5.264;2023-11-18T00:44:35;24.4;;;15.0;;
67429;SDS011;54298;52.076;5.264;2023-11-18T00:47:47;26.4;;;15.3;;
67429;SDS011;54298;52.076;5.264;2023-11-18T00:49:24;26.1;;;15.2;;
67429;SDS011;54298;52.076;5.264;2023-11-18T00:51:00;21.0;;;14.2;;
67429;SDS011;54298;52.076;5.264;2023-11-18T00:52:36;24.2;;;14.8;;
67429;SDS011;54298;52.076;5.264;2023-11-18T00:55:48;21.6;;;15.2;;
67429;SDS011;54298;52.076;5.264;2023-11-18T00:57:24;25.6;;;15.6;;
67429;SDS011;54298;52.076;5.264;2023-11-18T00:59:00;27.9;;;15.0;;
67429;SDS011;54298;52.076;5.264;2023-11-18T01:02:12;29.4;;;15.7;;
67429;SDS011;54298;52.076;5.264;2023-11-18T01:03:49;25.5;;;15.8;;
67429;SDS011;54298;52.076;5.264;2023-11-18T01:05:25;28.1;;;16.2;;
67429;SDS011;54298;52.076;5.264;2023-11-18T01:08:37;27.5;;;16.0;;
67429;SDS011;54298;52.076;5.264;2023-11-18T01:10:13;27.3;;;15.6;;
67429;SDS011;54298;52.076;5.264;2023-11-18T01:11:49;24.1;;;15.0;;
67429;SDS011;54298;52.076;5.264;2023-11-18T01:15:02;26.8;;;17.0;;
67429;SDS011;54298;52.076;5.264;2023-11-18T01:16:38;21.9;;;15.1;;
67429;SDS011;54298;52.076;5.264;2023-11-18T01:18:15;28.4;;;16.3;;
67429;SDS011;54298;52.076;5.264;2023-11-18T01:19:51;26.3;;;16.3;;
67429;SDS011;54298;52.076;5.264;2023-11-18T01:23:03;26.4;;;15.4;;
67429;SDS011;54298;52.076;5.264;2023-11-18T01:24:39;26.9;;;15.9;;
67429;SDS011;54298;52.076;5.264;2023-11-18T01:26:16;24.5;;;15.2;;
67429;SDS011;54298;52.076;5.264;2023-11-18T01:29:28;27.4;;;15.7;;
67429;SDS011;54298;52.076;5.264;2023-11-18T01:31:05;26.2;;;15.4;;
67429;SDS011;54298;52.076;5.264;2023-11-18T01:32:41;29.7;;;16.4;;
67429;SDS011;54298;52.076;5.264;2023-11-18T01:35:53;28.3;;;16.61;;
67429;SDS011;54298;52.076;5.264;2023-11-18T01:37:29;24.1;;;15.1;;
67429;SDS011;54298;52.076;5.264;2023-11-18T01:39:05;22.9;;;15.9;;
67429;SDS011;54298;52.076;5.264;2023-11-18T01:40:41;25.4;;;16.11;;
67429;SDS011;54298;52.076;5.264;2023-11-18T01:43:53;22.5;;;15.6;;
67429;SDS011;54298;52.076;5.264;2023-11-18T01:45:30;27.6;;;15.6;;
67429;SDS011;54298;52.076;5.264;2023-11-18T01:47:06;26.9;;;16.2;;
67429;SDS011;54298;52.076;5.264;2023-11-18T01:50:19;25.6;;;15.0;;
67429;SDS011;54298;52.076;5.264;2023-11-18T01:51:55;27.1;;;16.2;;
67429;SDS011;54298;52.076;5.264;2023-11-18T01:53:31;26.2;;;15.7;;
67429;SDS011;54298;52.076;5.264;2023-11-18T01:56:46;23.8;;;14.4;;
67429;SDS011;54298;52.076;5.264;2023-11-18T01:58:23;28.9;;;14.6;;
67429;SDS011;54298;52.076;5.264;2023-11-18T02:00:00;24.9;;;14.9;;
67429;SDS011;54298;52.076;5.264;2023-11-18T02:01:37;21.4;;;13.3;;
67429;SDS011;54298;52.076;5.264;2023-11-18T02:04:50;22.8;;;14.4;;
67429;SDS011;54298;52.076;5.264;2023-11-18T02:06:26;21.8;;;13.5;;
67429;SDS011;54298;52.076;5.264;2023-11-18T02:08:04;27.2;;;15.6;;
67429;SDS011;54298;52.076;5.264;2023-11-18T02:11:20;22.7;;;14.9;;
67429;SDS011;54298;52.076;5.264;2023-11-18T02:13:06;25.0;;;14.9;;
67429;SDS011;54298;52.076;5.264;2023-11-18T02:14:49;23.0;;;13.7;;
67429;SDS011;54298;52.076;5.264;2023-11-18T02:16:27;22.5;;;14.6;;
67429;SDS011;54298;52.076;5.264;2023-11-18T02:19:42;24.0;;;14.3;;
67429;SDS011;54298;52.076;5.264;2023-11-18T02:21:19;27.2;;;14.4;;
67429;SDS011;54298;52.076;5.264;2023-11-18T02:22:56;25.0;;;14.4;;
67429;SDS011;54298;52.076;5.264;2023-11-18T02:26:10;26.2;;;15.1;;
67429;SDS011;54298;52.076;5.264;2023-11-18T02:27:46;26.9;;;15.6;;
67429;SDS011;54298;52.076;5.264;2023-11-18T02:29:22;25.7;;;15.0;;
67429;SDS011;54298;52.076;5.264;2023-11-18T02:31:02;24.0;;;14.6;;
67429;SDS011;54298;52.076;5.264;2023-11-18T02:34:34;26.6;;;15.6;;
67429;SDS011;54298;52.076;5.264;2023-11-18T02:36:20;25.4;;;15.7;;
67429;SDS011;54298;52.076;5.264;2023-11-18T02:38:04;26.9;;;15.0;;
67429;SDS011;54298;52.076;5.264;2023-11-18T02:39:42;26.9;;;16.2;;
67429;SDS011;54298;52.076;5.264;2023-11-18T02:41:21;25.8;;;16.0;;
67429;SDS011;54298;52.076;5.264;2023-11-18T02:44:36;31.2;;;15.8;;
67429;SDS011;54298;52.076;5.264;2023-11-18T02:46:13;25.4;;;15.1;;
67429;SDS011;54298;52.076;5.264;2023-11-18T02:47:49;24.8;;;15.2;;
67429;SDS011;54298;52.076;5.264;2023-11-18T02:51:01;25.1;;;16.0;;
67429;SDS011;54298;52.076;5.264;2023-11-18T02:52:38;25.3;;;16.11;;
67429;SDS011;54298;52.076;5.264;2023-11-18T02:54:14;21.8;;;16.11;;
67429;SDS011;54298;52.076;5.264;2023-11-18T02:57:26;22.2;;;15.4;;
67429;SDS011;54298;52.076;5.264;2023-11-18T02:59:02;28.8;;;15.7;;
67429;SDS011;54298;52.076;5.264;2023-11-18T03:00:38;24.1;;;14.8;;
67429;SDS011;54298;52.076;5.264;2023-11-18T03:02:14;30.5;;;15.6;;
67429;SDS011;54298;52.076;5.264;2023-11-18T03:05:26;25.0;;;16.4;;
67429;SDS011;54298;52.076;5.264;2023-11-18T03:07:02;24.4;;;16.0;;
67429;SDS011;54298;52.076;5.264;2023-11-18T03:08:38;27.9;;;15.5;;
67429;SDS011;54298;52.076;5.264;2023-11-18T03:11:51;25.7;;;15.3;;
67429;SDS011;54298;52.076;5.264;2023-11-18T03:13:27;26.5;;;14.4;;
67429;SDS011;54298;52.076;5.264;2023-11-18T03:15:04;25.9;;;15.9;;
67429;SDS011;54298;52.076;5.264;2023-11-18T03:18:16;25.6;;;15.8;;
67429;SDS011;54298;52.076;5.264;2023-11-18T03:19:52;27.8;;;15.1;;
67429;SDS011;54298;52.076;5.264;2023-11-18T03:21:28;31.4;;;15.9;;
67429;SDS011;54298;52.076;5.264;2023-11-18T03:24:41;26.1;;;15.2;;
67429;SDS011;54298;52.076;5.264;2023-11-18T03:26:17;23.6;;;15.5;;
67429;SDS011;54298;52.076;5.264;2023-11-18T03:27:53;30.9;;;15.2;;
67429;SDS011;54298;52.076;5.264;2023-11-18T03:29:29;25.7;;;15.3;;
67429;SDS011;54298;52.076;5.264;2023-11-18T03:32:42;22.2;;;15.5;;
67429;SDS011;54298;52.076;5.264;2023-11-18T03:34:18;24.3;;;14.1;;
67429;SDS011;54298;52.076;5.264;2023-11-18T03:35:55;26.9;;;15.1;;
67429;SDS011;54298;52.076;5.264;2023-11-18T03:39:08;21.4;;;14.3;;
67429;SDS011;54298;52.076;5.264;2023-11-18T03:40:45;27.3;;;14.0;;
67429;SDS011;54298;52.076;5.264;2023-11-18T03:42:21;24.5;;;13.6;;
67429;SDS011;54298;52.076;5.264;2023-11-18T03:45:33;27.0;;;14.3;;
67429;SDS011;54298;52.076;5.264;2023-11-18T03:47:09;28.0;;;13.7;;
67429;SDS011;54298;52.076;5.264;2023-11-18T03:48:45;21.6;;;14.0;;
67429;SDS011;54298;52.076;5.264;2023-11-18T03:50:21;23.7;;;13.0;;
67429;SDS011;54298;52.076;5.264;2023-11-18T03:53:33;25.5;;;13.8;;
67429;SDS011;54298;52.076;5.264;2023-11-18T03:55:10;22.6;;;13.3;;
67429;SDS011;54298;52.076;5.264;2023-11-18T03:56:47;23.7;;;14.0;;
67429;SDS011;54298;52.076;5.264;2023-11-18T03:59:59;23.2;;;14.2;;
67429;SDS011;54298;52.076;5.264;2023-11-18T04:01:35;23.0;;;13.4;;
67429;SDS011;54298;52.076;5.264;2023-11-18T04:03:11;24.2;;;13.5;;
67429;SDS011;54298;52.076;5.264;2023-11-18T04:06:23;21.6;;;13.7;;
67429;SDS011;54298;52.076;5.264;2023-11-18T04:07:59;21.9;;;13.0;;
67429;SDS011;54298;52.076;5.264;2023-11-18T04:09:35;24.1;;;13.9;;
67429;SDS011;54298;52.076;5.264;2023-11-18T04:12:48;21.5;;;13.3;;
67429;SDS011;54298;52.076;5.264;2023-11-18T04:14:24;21.5;;;13.4;;
67429;SDS011;54298;52.076;5.264;2023-11-18T04:16:00;21.0;;;13.3;;
67429;SDS011;54298;52.076;5.264;2023-11-18T04:17:36;22.8;;;13.1;;
67429;SDS011;54298;52.076;5.264;2023-11-18T04:20:48;20.7;;;13.5;;
67429;SDS011;54298;52.076;5.264;2023-11-18T04:22:24;24.5;;;14.1;;
67429;SDS011;54298;52.076;5.264;2023-11-18T04:24:00;19.91;;;13.0;;
67429;SDS011;54298;52.076;5.264;2023-11-18T04:27:13;25.3;;;15.4;;
67429;SDS011;54298;52.076;5.264;2023-11-18T04:28:49;22.9;;;13.7;;
67429;SDS011;54298;52.076;5.264;2023-11-18T04:30:25;23.6;;;13.6;;
67429;SDS011;54298;52.076;5.264;2023-11-18T04:33:37;22.6;;;13.1;;
67429;SDS011;54298;52.076;5.264;2023-11-18T04:35:13;26.6;;;14.7;;
67429;SDS011;54298;52.076;5.264;2023-11-18T04:36:49;23.9;;;13.0;;
67429;SDS011;54298;52.076;5.264;2023-11-18T04:40:03;19.8;;;12.8;;
67429;SDS011;54298;52.076;5.264;2023-11-18T04:41:42;24.7;;;14.2;;
67429;SDS011;54298;52.076;5.264;2023-11-18T04:43:18;20.11;;;13.3;;
67429;SDS011;54298;52.076;5.264;2023-11-18T04:44:54;22.8;;;13.5;;
67429;SDS011;54298;52.076;5.264;2023-11-18T04:48:06;24.5;;;13.7;;
67429;SDS011;54298;52.076;5.264;2023-11-18T04:49:42;23.0;;;13.9;;
67429;SDS011;54298;52.076;5.264;2023-11-18T04:51:18;18.2;;;12.0;;
67429;SDS011;54298;52.076;5.264;2023-11-18T04:54:31;23.5;;;14.5;;
67429;SDS011;54298;52.076;5.264;2023-11-18T04:56:07;19.41;;;13.3;;
67429;SDS011;54298;52.076;5.264;2023-11-18T04:57:43;23.4;;;13.0;;
67429;SDS011;54298;52.076;5.264;2023-11-18T05:00:55;23.6;;;12.8;;
67429;SDS011;54298;52.076;5.264;2023-11-18T05:02:31;26.2;;;14.3;;
67429;SDS011;54298;52.076;5.264;2023-11-18T05:04:07;22.1;;;12.8;;
67429;SDS011;54298;52.076;5.264;2023-11-18T05:05:43;19.7;;;12.3;;
67429;SDS011;54298;52.076;5.264;2023-11-18T05:08:56;25.6;;;13.0;;
67429;SDS011;54298;52.076;5.264;2023-11-18T05:10:32;18.91;;;12.7;;
67429;SDS011;54298;52.076;5.264;2023-11-18T05:12:08;21.0;;;13.6;;
67429;SDS011;54298;52.076;5.264;2023-11-18T05:15:20;22.2;;;13.6;;
67429;SDS011;54298;52.076;5.264;2023-11-18T05:16:57;21.3;;;13.0;;
67429;SDS011;54298;52.076;5.264;2023-11-18T05:18:33;20.5;;;12.9;;
67429;SDS011;54298;52.076;5.264;2023-11-18T05:21:46;23.5;;;13.0;;
67429;SDS011;54298;52.076;5.264;2023-11-18T05:23:22;22.0;;;13.6;;
67429;SDS011;54298;52.076;5.264;2023-11-18T05:24:58;23.1;;;13.4;;
67429;SDS011;54298;52.076;5.264;2023-11-18T05:26:34;18.41;;;12.7;;
67429;SDS011;54298;52.076;5.264;2023-11-18T05:29:46;21.3;;;13.6;;
67429;SDS011;54298;52.076;5.264;2023-11-18T05:31:22;24.6;;;13.1;;
67429;SDS011;54298;52.076;5.264;2023-11-18T05:32:58;20.41;;;13.9;;
67429;SDS011;54298;52.076;5.264;2023-11-18T05:36:11;21.1;;;14.3;;
67429;SDS011;54298;52.076;5.264;2023-11-18T05:37:47;20.0;;;12.8;;
67429;SDS011;54298;52.076;5.264;2023-11-18T05:39:23;22.5;;;13.7;;
67429;SDS011;54298;52.076;5.264;2023-11-18T05:42:35;20.11;;;12.9;;
67429;SDS011;54298;52.076;5.264;2023-11-18T05:44:12;25.0;;;13.5;;
67429;SDS011;54298;52.076;5.264;2023-11-18T05:45:48;20.7;;;12.3;;
67429;SDS011;54298;52.076;5.264;2023-11-18T05:49:01;20.9;;;12.7;;
67429;SDS011;54298;52.076;5.264;2023-11-18T05:50:38;24.9;;;13.1;;
67429;SDS011;54298;52.076;5.264;2023-11-18T05:52:14;20.2;;;12.3;;
67429;SDS011;54298;52.076;5.264;2023-11-18T05:53:50;19.61;;;12.2;;
67429;SDS011;54298;52.076;5.264;2023-11-18T05:57:03;26.7;;;12.3;;
67429;SDS011;54298;52.076;5.264;2023-11-18T05:58:39;19.7;;;11.9;;
67429;SDS011;54298;52.076;5.264;2023-11-18T06:00:16;21.4;;;12.7;;
67429;SDS011;54298;52.076;5.264;2023-11-18T06:03:28;21.6;;;12.3;;
67429;SDS011;54298;52.076;5.264;2023-11-18T06:05:05;18.5;;;12.0;;
67429;SDS011;54298;52.076;5.264;2023-11-18T06:06:42;22.1;;;11.8;;
67429;SDS011;54298;52.076;5.264;2023-11-18T06:09:54;23.7;;;12.1;;
67429;SDS011;54298;52.076;5.264;2023-11-18T06:11:30;24.1;;;12.3;;
67429;SDS011;54298;52.076;5.264;2023-11-18T06:13:06;17.7;;;11.7;;
67429;SDS011;54298;52.076;5.264;2023-11-18T06:14:42;23.4;;;12.1;;
67429;SDS011;54298;52.076;5.264;2023-11-18T06:17:57;19.5;;;12.0;;
67429;SDS011;54298;52.076;5.264;2023-11-18T06:19:33;20.9;;;12.2;;
67429;SDS011;54298;52.076;5.264;2023-11-18T06:21:10;22.1;;;12.3;;
67429;SDS011;54298;52.076;5.264;2023-11-18T06:24:23;19.8;;;13.0;;
67429;SDS011;54298;52.076;5.264;2023-11-18T06:25:59;24.0;;;12.2;;
67429;SDS011;54298;52.076;5.264;2023-11-18T06:27:35;25.1;;;12.8;;
67429;SDS011;54298;52.076;5.264;2023-11-18T06:30:47;21.8;;;13.0;;
67429;SDS011;54298;52.076;5.264;2023-11-18T06:32:23;18.41;;;11.4;;
67429;SDS011;54298;52.076;5.264;2023-11-18T06:34:00;17.91;;;11.4;;
67429;SDS011;54298;52.076;5.264;2023-11-18T06:37:13;21.6;;;12.3;;
67429;SDS011;54298;52.076;5.264;2023-11-18T06:38:49;17.11;;;11.6;;
67429;SDS011;54298;52.076;5.264;2023-11-18T06:40:26;20.8;;;11.9;;
67429;SDS011;54298;52.076;5.264;2023-11-18T06:42:02;22.7;;;11.5;;
67429;SDS011;54298;52.076;5.264;2023-11-18T06:45:15;23.0;;;11.9;;
67429;SDS011;54298;52.076;5.264;2023-11-18T06:46:51;20.8;;;11.4;;
67429;SDS011;54298;52.076;5.264;2023-11-18T06:48:28;17.91;;;11.2;;
67429;SDS011;54298;52.076;5.264;2023-11-18T06:51:41;18.7;;;11.7;;
67429;SDS011;54298;52.076;5.264;2023-11-18T06:53:18;19.0;;;11.3;;
67429;SDS011;54298;52.076;5.264;2023-11-18T06:54:54;23.3;;;12.0;;
67429;SDS011;54298;52.076;5.264;2023-11-18T06:58:06;18.0;;;10.6;;
67429;SDS011;54298;52.076;5.264;2023-11-18T06:59:42;15.6;;;10.8;;
67429;SDS011;54298;52.076;5.264;2023-11-18T07:01:19;23.1;;;11.3;;
67429;SDS011;54298;52.076;5.264;2023-11-18T07:02:56;20.5;;;10.9;;
67429;SDS011;54298;52.076;5.264;2023-11-18T07:06:08;20.2;;;10.6;;
67429;SDS011;54298;52.076;5.264;2023-11-18T07:07:44;18.41;;;11.3;;
67429;SDS011;54298;52.076;5.264;2023-11-18T07:09:20;17.0;;;10.21;;
67429;SDS011;54298;52.076;5.264;2023-11-18T07:12:32;20.2;;;11.3;;
67429;SDS011;54298;52.076;5.264;2023-11-18T07:14:09;19.11;;;11.6;;
67429;SDS011;54298;52.076;5.264;2023-11-18T07:15:46;18.11;;;10.6;;
67429;SDS011;54298;52.076;5.264;2023-11-18T07:18:58;18.61;;;11.0;;
67429;SDS011;54298;52.076;5.264;2023-11-18T07:20:34;20.41;;;10.9;;
67429;SDS011;54298;52.076;5.264;2023-11-18T07:22:10;17.7;;;10.6;;
67429;SDS011;54298;52.076;5.264;2023-11-18T07:23:46;18.2;;;10.4;;
67429;SDS011;54298;52.076;5.264;2023-11-18T07:26:58;19.0;;;10.7;;
67429;SDS011;54298;52.076;5.264;2023-11-18T07:28:34;17.91;;;10.8;;
67429;SDS011;54298;52.076;5.264;2023-11-18T07:30:11;19.61;;;10.6;;
67429;SDS011;54298;52.076;5.264;2023-11-18T07:33:23;17.8;;;10.4;;
67429;SDS011;54298;52.076;5.264;2023-11-18T07:34:59;20.0;;;11.0;;
67429;SDS011;54298;52.076;5.264;2023-11-18T07:36:35;17.7;;;10.3;;
67429;SDS011;54298;52.076;5.264;2023-11-18T07:39:48;21.7;;;13.0;;
67429;SDS011;54298;52.076;5.264;2023-11-18T07:41:24;19.2;;;10.3;;
67429;SDS011;54298;52.076;5.264;2023-11-18T07:43:00;21.5;;;10.8;;
67429;SDS011;54298;52.076;5.264;2023-11-18T07:46:12;20.8;;;10.3;;
67429;SDS011;54298;52.076;5.264;2023-11-18T07:47:49;19.5;;;10.6;;
67429;SDS011;54298;52.076;5.264;2023-11-18T07:49:25;20.5;;;10.8;;
67429;SDS011;54298;52.076;5.264;2023-11-18T07:51:01;20.6;;;11.5;;
67429;SDS011;54298;52.076;5.264;2023-11-18T07:54:14;17.91;;;10.1;;
67429;SDS011;54298;52.076;5.264;2023-11-18T07:55:50;17.41;;;11.9;;
67429;SDS011;54298;52.076;5.264;2023-11-18T07:57:26;14.4;;;9.9;;
67429;SDS011;54298;52.076;5.264;2023-11-18T08:00:39;17.0;;;10.3;;
67429;SDS011;54298;52.076;5.264;2023-11-18T08:02:15;20.11;;;10.1;;
67429;SDS011;54298;52.076;5.264;2023-11-18T08:03:52;18.41;;;10.1;;
67429;SDS011;54298;52.076;5.264;2023-11-18T08:07:04;16.61;;;10.0;;
67429;SDS011;54298;52.076;5.264;2023-11-18T08:08:40;16.3;;;9.0;;
67429;SDS011;54298;52.076;5.264;2023-11-18T08:10:16;16.8;;;10.0;;
67429;SDS011;54298;52.076;5.264;2023-11-18T08:11:52;18.7;;;9.6;;
67429;SDS011;54298;52.076;5.264;2023-11-18T08:15:05;18.2;;;10.21;;
67429;SDS011;54298;52.076;5.264;2023-11-18T08:16:41;22.4;;;11.2;;
67429;SDS011;54298;52.076;5.264;2023-11-18T08:18:18;17.0;;;9.6;;
67429;SDS011;54298;52.076;5.264;2023-11-18T08:21:30;16.8;;;9.21;;
67429;SDS011;54298;52.076;5.264;2023-11-18T08:23:06;15.2;;;8.81;;
67429;SDS011;54298;52.076;5.264;2023-11-18T08:24:42;16.9;;;9.1;;
67429;SDS011;54298;52.076;5.264;2023-11-18T08:27:54;16.61;;;8.9;;
67429;SDS011;54298;52.076;5.264;2023-11-18T08:29:32;15.9;;;8.9;;
67429;SDS011;54298;52.076;5.264;2023-11-18T08:31:08;36.31;;;17.61;;
67429;SDS011;54298;52.076;5.264;2023-11-18T08:34:21;17.5;;;8.5;;
67429;SDS011;54298;52.076;5.264;2023-11-18T08:35:57;15.5;;;8.31;;
67429;SDS011;54298;52.076;5.264;2023-11-18T08:37:33;11.8;;;7.6;;
67429;SDS011;54298;52.076;5.264;2023-11-18T08:39:10;15.2;;;9.1;;
67429;SDS011;54298;52.076;5.264;2023-11-18T08:42:23;14.8;;;8.4;;
67429;SDS011;54298;52.076;5.264;2023-11-18T08:43:59;12.2;;;7.6;;
67429;SDS011;54298;52.076;5.264;2023-11-18T08:45:35;16.0;;;7.8;;
67429;SDS011;54298;52.076;5.264;2023-11-18T08:48:47;14.0;;;8.6;;
67429;SDS011;54298;52.076;5.264;2023-11-18T08:50:23;13.5;;;8.1;;
67429;SDS011;54298;52.076;5.264;2023-11-18T08:52:01;31.6;;;15.1;;
67429;SDS011;54298;52.076;5.264;2023-11-18T08:55:15;16.5;;;9.71;;
67429;SDS011;54298;52.076;5.264;2023-11-18T08:56:51;14.0;;;7.7;;
67429;SDS011;54298;52.076;5.264;2023-11-18T08:58:27;14.9;;;8.0;;
67429;SDS011;54298;52.076;5.264;2023-11-18T09:00:04;16.0;;;6.9;;
67429;SDS011;54298;52.076;5.264;2023-11-18T09:03:18;13.4;;;7.0;;
67429;SDS011;54298;52.076;5.264;2023-11-18T09:04:56;11.1;;;6.3;;
67429;SDS011;54298;52.076;5.264;2023-11-18T09:06:32;14.7;;;6.7;;
67429;SDS011;54298;52.076;5.264;2023-11-18T09:09:44;9.71;;;5.9;;
67429;SDS011;54298;52.076;5.264;2023-11-18T09:11:21;10.9;;;6.5;;
67429;SDS011;54298;52.076;5.264;2023-11-18T09:12:58;11.5;;;6.0;;
67429;SDS011;54298;52.076;5.264;2023-11-18T09:16:11;13.2;;;7.6;;
67429;SDS011;54298;52.076;5.264;2023-11-18T09:17:48;12.0;;;7.9;;
67429;SDS011;54298;52.076;5.264;2023-11-18T09:19:24;11.9;;;6.8;;
67429;SDS011;54298;52.076;5.264;2023-11-18T09:21:00;11.2;;;7.4;;
67429;SDS011;54298;52.076;5.264;2023-11-18T09:24:12;16.5;;;8.6;;
67429;SDS011;54298;52.076;5.264;2023-11-18T09:25:48;10.4;;;6.1;;
67429;SDS011;54298;52.076;5.264;2023-11-18T09:27:25;13.1;;;6.6;;
67429;SDS011;54298;52.076;5.264;2023-11-18T09:30:37;14.9;;;6.1;;
67429;SDS011;54298;52.076;5.264;2023-11-18T09:32:13;13.5;;;7.3;;
67429;SDS011;54298;52.076;5.264;2023-11-18T09:33:49;16.5;;;6.2;;
67429;SDS011;54298;52.076;5.264;2023-11-18T09:37:02;13.0;;;6.1;;
67429;SDS011;54298;52.076;5.264;2023-11-18T09:38:38;9.21;;;5.8;;
67429;SDS011;54298;52.076;5.264;2023-11-18T09:40:16;13.4;;;5.5;;
67429;SDS011;54298;52.076;5.264;2023-11-18T09:41:52;18.3;;;9.4;;
67429;SDS011;54298;52.076;5.264;2023-11-18T09:45:05;11.7;;;6.6;;
67429;SDS011;54298;52.076;5.264;2023-11-18T09:46:43;14.3;;;6.3;;
67429;SDS011;54298;52.076;5.264;2023-11-18T09:48:25;13.4;;;6.0;;
67429;SDS011;54298;52.076;5.264;2023-11-18T09:51:44;10.0;;;6.1;;
67429;SDS011;54298;52.076;5.264;2023-11-18T09:53:21;8.81;;;5.7;;
67429;SDS011;54298;52.076;5.264;2023-11-18T09:54:59;12.4;;;6.0;;
67429;SDS011;54298;52.076;5.264;2023-11-18T09:56:41;8.0;;;4.91;;
67429;SDS011;54298;52.076;5.264;2023-11-18T10:00:15;12.7;;;6.8;;
67429;SDS011;54298;52.076;5.264;2023-11-18T10:01:53;19.2;;;9.9;;
67429;SDS011;54298;52.076;5.264;2023-11-18T10:03:33;8.6;;;5.2;;
67429;SDS011;54298;52.076;5.264;2023-11-18T10:05:09;11.5;;;5.8;;
67429;SDS011;54298;52.076;5.264;2023-11-18T10:08:25;15.3;;;8.81;;
67429;SDS011;54298;52.076;5.264;2023-11-18T10:10:01;8.71;;;4.91;;
67429;SDS011;54298;52.076;5.264;2023-11-18T10:11:37;8.81;;;4.2;;
67429;SDS011;54298;52.076;5.264;2023-11-18T10:13:13;18.11;;;7.9;;
67429;SDS011;54298;52.076;5.264;2023-11-18T10:16:27;9.71;;;4.5;;
67429;SDS011;54298;52.076;5.264;2023-11-18T10:18:03;11.5;;;5.6;;
67429;SDS011;54298;52.076;5.264;2023-11-18T10:19:49;11.6;;;4.91;;
67429;SDS011;54298;52.076;5.264;2023-11-18T10:23:11;6.1;;;4.3;;
67429;SDS011;54298;52.076;5.264;2023-11-18T10:24:48;8.6;;;5.11;;
67429;SDS011;54298;52.076;5.264;2023-11-18T10:26:24;11.3;;;5.4;;
67429;SDS011;54298;52.076;5.264;2023-11-18T10:28:01;10.6;;;5.9;;
67429;SDS011;54298;52.076;5.264;2023-11-18T10:31:13;7.4;;;4.41;;
67429;SDS011;54298;52.076;5.264;2023-11-18T10:32:56;13.4;;;5.6;;
67429;SDS011;54298;52.076;5.264;2023-11-18T10:34:32;9.6;;;4.5;;
67429;SDS011;54298;52.076;5.264;2023-11-18T10:37:54;9.5;;;4.0;;
67429;SDS011;54298;52.076;5.264;2023-11-18T10:39:31;10.6;;;5.0;;
67429;SDS011;54298;52.076;5.264;2023-11-18T10:41:08;9.9;;;4.5;;
67429;SDS011;54298;52.076;5.264;2023-11-18T10:42:44;11.4;;;4.61;;
67429;SDS011;54298;52.076;5.264;2023-11-18T10:46:05;15.7;;;8.9;;
67429;SDS011;54298;52.076;5.264;2023-11-18T10:47:43;11.2;;;5.11;;
67429;SDS011;54298;52.076;5.264;2023-11-18T10:49:20;20.0;;;7.2;;
67429;SDS011;54298;52.076;5.264;2023-11-18T10:50:56;16.9;;;7.2;;
67429;SDS011;54298;52.076;5.264;2023-11-18T10:54:08;11.3;;;5.4;;
67429;SDS011;54298;52.076;5.264;2023-11-18T10:55:44;16.7;;;7.5;;
67429;SDS011;54298;52.076;5.264;2023-11-18T10:57:21;12.1;;;5.9;;
67429;SDS011;54298;52.076;5.264;2023-11-18T11:00:45;7.7;;;3.9;;
67429;SDS011;54298;52.076;5.264;2023-11-18T11:02:23;13.0;;;6.4;;
67429;SDS011;54298;52.076;5.264;2023-11-18T11:03:59;7.6;;;4.1;;
67429;SDS011;54298;52.076;5.264;2023-11-18T11:05:36;6.5;;;3.9;;
67429;SDS011;54298;52.076;5.264;2023-11-18T11:08:52;12.1;;;4.2;;
67429;SDS011;54298;52.076;5.264;2023-11-18T11:10:28;9.6;;;4.3;;
67429;SDS011;54298;52.076;5.264;2023-11-18T11:12:07;7.2;;;3.9;;
67429;SDS011;54298;52.076;5.264;2023-11-18T11:15:29;9.9;;;3.9;;
67429;SDS011;54298;52.076;5.264;2023-11-18T11:17:06;9.4;;;5.2;;
67429;SDS011;54298;52.076;5.264;2023-11-18T11:18:44;9.1;;;3.9;;
67429;SDS011;54298;52.076;5.264;2023-11-18T11:20:24;5.0;;;3.5;;
67429;SDS011;54298;52.076;5.264;2023-11-18T11:23:42;5.0;;;3.3;;
67429;SDS011;54298;52.076;5.264;2023-11-18T11:25:28;7.3;;;3.8;;
67429;SDS011;54298;52.076;5.264;2023-11-18T11:27:13;8.9;;;4.91;;
67429;SDS011;54298;52.076;5.264;2023-11-18T11:29:00;7.6;;;3.7;;
67429;SDS011;54298;52.076;5.264;2023-11-18T11:30:44;8.71;;;4.61;;
67429;SDS011;54298;52.076;5.264;2023-11-18T11:34:04;9.5;;;5.0;;
67429;SDS011;54298;52.076;5.264;2023-11-18T11:35:43;9.5;;;5.0;;
67429;SDS011;54298;52.076;5.264;2023-11-18T11:37:24;7.5;;;3.2;;
67429;SDS011;54298;52.076;5.264;2023-11-18T11:39:01;6.1;;;3.6;;
67429;SDS011;54298;52.076;5.264;2023-11-18T11:42:14;10.9;;;4.5;;
67429;SDS011;54298;52.076;5.264;2023-11-18T11:43:54;18.41;;;8.4;;
67429;SDS011;54298;52.076;5.264;2023-11-18T11:45:31;7.8;;;3.8;;
67429;SDS011;54298;52.076;5.264;2023-11-18T11:48:44;8.1;;;3.6;;
67429;SDS011;54298;52.076;5.264;2023-11-18T11:50:21;7.2;;;3.3;;
67429;SDS011;54298;52.076;5.264;2023-11-18T11:52:09;10.3;;;3.9;;
67429;SDS011;54298;52.076;5.264;2023-11-18T11:53:52;9.0;;;4.2;;
67429;SDS011;54298;52.076;5.264;2023-11-18T11:57:17;9.81;;;4.3;;
67429;SDS011;54298;52.076;5.264;2023-11-18T11:58:53;8.71;;;3.8;;
67429;SDS011;54298;52.076;5.264;2023-11-18T12:00:33;8.2;;;3.8;;
67429;SDS011;54298;52.076;5.264;2023-11-18T12:02:09;5.6;;;3.1;;
67429;SDS011;54298;52.076;5.264;2023-11-18T12:05:23;6.3;;;3.3;;
67429;SDS011;54298;52.076;5.264;2023-11-18T12:07:00;14.7;;;6.9;;
67429;SDS011;54298;52.076;5.264;2023-11-18T12:08:36;8.5;;;3.8;;
67429;SDS011;54298;52.076;5.264;2023-11-18T12:11:48;8.31;;;3.5;;
67429;SDS011;54298;52.076;5.264;2023-11-18T12:13:26;6.2;;;3.5;;
67429;SDS011;54298;52.076;5.264;2023-11-18T12:15:02;10.7;;;3.4;;
67429;SDS011;54298;52.076;5.264;2023-11-18T12:16:57;11.5;;;5.0;;
67429;SDS011;54298;52.076;5.264;2023-11-18T12:20:30;11.3;;;4.2;;
67429;SDS011;54298;52.076;5.264;2023-11-18T12:22:13;6.1;;;2.9;;
67429;SDS011;54298;52.076;5.264;2023-11-18T12:24:14;14.2;;;7.7;;
67429;SDS011;54298;52.076;5.264;2023-11-18T12:25:51;27.2;;;11.0;;
67429;SDS011;54298;52.076;5.264;2023-11-18T12:27:48;10.5;;;5.5;;
67429;SDS011;54298;52.076;5.264;2023-11-18T12:29:31;10.8;;;4.61;;
67429;SDS011;54298;52.076;5.264;2023-11-18T12:33:04;7.7;;;3.6;;
67429;SDS011;54298;52.076;5.264;2023-11-18T12:34:52;19.3;;;8.31;;
67429;SDS011;54298;52.076;5.264;2023-11-18T12:37:17;9.71;;;4.2;;
67429;SDS011;54298;52.076;5.264;2023-11-18T12:39:21;10.0;;;3.8;;
67429;SDS011;54298;52.076;5.264;2023-11-18T12:42:04;6.3;;;2.8;;